Hecker, Illinois
Current Conditions -  °F | °C
As of 7:58 AM on Tuesday 21 Oct 2014 (Local Time) from KBLV Reporting Station
Clear Clear  
Wind Chill: 47°   Ceiling: Unl
Heat Index: 47°   Visibility: 10mi
Dew Point: 46°   Wind: 1mph
Humidity: 95%   Direction: 310°NW
Pressure: 30.09"   Gusts: NA
Location:  38.31°N, 89.99°W
Report Text: KBLV 211258Z 31001KT 10SM CLR 08/08 A3009 RMK AO2A SLP193 T00820075
Loading
Personal Weather Stations






























Interactive Weather Map
Tropical Storm Tracking
New forecast layout! Learn more

10-Day Weather Forecast

Advertisements
Track Severe Weather on mobile